• Join FlightAware (Why Join?)
  • Login
  • US Flag 
10:35AM EDT


 

Airport Tracker/Info


-or-


 

Live Flight TrackerFlight Track Log ✈ SWA16 ✈ 30-Dec-2013 ✈ KEWR - KHOU

Flight Track Log - Related Links

Times and Time Zones

All times are in EST time to prevent confusion due to time zone crossing. See the SWA16 flight status page for this flight to view local times or setup timezone preferences in your user account.

Time Position Orientation Groundspeed Altitude Reporting Facility
EST Latitude Longitude Course Direction KTS MPH feet Rate Location/Type
06:30AM 40.6333 -74.2167 234° Southwest 191 220 2,600  Level New York TRACON
06:31AM 40.6333 -74.2833 270° West 204 235 4,700 2,280 Climbing New York TRACON
06:32AM 40.6333 -74.3667 270° West 237 273 7,200 3,000 Climbing New York TRACON
06:33AM 40.6167 -74.4667 258° West 239 275 10,800 2,460 Climbing New York TRACON
06:34AM 40.6028 -74.6250 263° West 310 357 13,900 2,280 Climbing New York Center
06:35AM 40.4664 -74.7703 234° Southwest  Level Estimated
06:35AM 40.5900 -74.7611 263° West 340 391 17,000  Level New York Center
06:36AM 40.5753 -74.8831 261° West 340 391 19,800 2,400 Climbing New York Center
06:37AM 40.5319 -74.9953 243° Southwest 340 391 21,900 2,100 Climbing New York Center
06:38AM 40.4778 -75.1064 237° Southwest 351 404 24,000 2,280 Climbing New York Center
06:39AM 40.4178 -75.2089 232° Southwest 356 410 26,500 2,580 Climbing New York Center
06:40AM 40.3600 -75.3033 231° Southwest 356 410 29,200 2,280 Climbing New York Center
06:41AM 40.3022 -75.3947 230° Southwest 341 392 31,100 1,800 Climbing New York Center
06:42AM 40.2486 -75.4864 233° Southwest 336 387 32,800 1,620 Climbing New York Center
06:43AM 40.1950 -75.5753 232° Southwest 336 387 34,400 1,440 Climbing New York Center
06:44AM 40.1392 -75.6636 230° Southwest 330 380 35,700 780 Climbing New York Center
06:45AM 40.0878 -75.7497 232° Southwest 319 367 36,000 120 Climbing New York Center
06:46AM 40.0339 -75.8381 231° Southwest 314 361 36,000  Level New York Center
06:47AM 39.9778 -75.9261 230° Southwest 314 361 36,000  Level New York Center
06:48AM 39.9261 -76.0117 232° Southwest 314 361 36,000  Level New York Center
06:49AM 39.8744 -76.0942 231° Southwest 314 361 36,000  Level New York Center
06:50AM 39.8183 -76.1847 231° Southwest 313 360 36,000 60 Level New York Center
06:53AM 39.7008 -76.3683 230° Southwest 309 356 36,200 360 Climbing Washington Center
06:54AM 39.6458 -76.4567 231° Southwest 309 356 37,300 900 Climbing Washington Center
06:54AM 39.5953 -76.5314 229° Southwest 309 356 38,000 300 Climbing Washington Center
06:55AM 39.5406 -76.6194 231° Southwest 314 361 38,000  Level Washington Center
06:56AM 39.4833 -76.7075 230° Southwest 314 361 38,000  Level Washington Center
06:57AM 39.4306 -76.7925 231° Southwest 314 361 38,000  Level Washington Center
06:58AM 39.3756 -76.8775 230° Southwest 319 367 38,000  Level Washington Center
06:59AM 39.3203 -76.9653 231° Southwest 319 367 38,000  Level Washington Center
07:00AM 39.2653 -77.0500 230° Southwest 319 367 38,000  Level Washington Center
07:01AM 39.2100 -77.1344 230° Southwest 319 367 38,000  Level Washington Center
07:02AM 39.1589 -77.2192 232° Southwest 319 367 38,000  Level Washington Center
07:04AM 39.1014 -77.3061 230° Southwest 319 367 38,000  Level Washington Center
07:04AM 39.0458 -77.3903 230° Southwest 319 367 38,000  Level Washington Center
07:05AM 38.9903 -77.4744 230° Southwest 319 367 38,000  Level Washington Center
07:07AM 38.9306 -77.5717 232° Southwest 319 367 38,000  Level Washington Center
07:07AM 38.8792 -77.6475 229° Southwest 319 367 38,000  Level Washington Center
07:08AM 38.8300 -77.7233 230° Southwest 319 367 38,000  Level Washington Center
07:09AM 38.7592 -77.8281 229° Southwest 328 377 38,000  Level Washington Center
07:10AM 38.7033 -77.9142 230° Southwest 323 372 38,000  Level Washington Center
07:11AM 38.6475 -77.9972 229° Southwest 318 366 38,000  Level Washington Center
07:12AM 38.5917 -78.0806 229° Southwest 318 366 38,000  Level Washington Center
07:13AM 38.5356 -78.1661 230° Southwest 318 366 38,000  Level Washington Center
07:14AM 38.4794 -78.2519 230° Southwest 318 366 38,000  Level Washington Center
07:16AM 38.4214 -78.3372 229° Southwest 323 372 38,000  Level Washington Center
07:16AM 38.3650 -78.4225 230° Southwest 323 372 38,000  Level Washington Center
07:17AM 38.3089 -78.5078 230° Southwest 323 372 38,000  Level Washington Center
07:18AM 38.2567 -78.5928 232° Southwest 316 364 38,000  Level Washington Center
07:20AM 38.2025 -78.6700 228° Southwest 316 364 38,000  Level Washington Center
07:21AM 38.1483 -78.7522 230° Southwest 321 369 38,000  Level Washington Center
07:21AM 38.0897 -78.8369 229° Southwest 321 369 38,000  Level Washington Center
07:22AM 38.0311 -78.9239 229° Southwest 321 369 38,000  Level Washington Center
07:23AM 37.9725 -79.0083 229° Southwest 321 369 38,000  Level Washington Center
07:24AM 37.9092 -79.1028 230° Southwest 321 369 38,000  Level Washington Center
07:25AM 37.8506 -79.1842 228° Southwest 321 369 38,000  Level Washington Center
07:27AM 37.7894 -79.2681 227° Southwest 321 369 38,000  Level Washington Center
07:27AM 37.7286 -79.3517 227° Southwest 321 369 38,000  Level Washington Center
07:28AM 37.6653 -79.4353 226° Southwest 333 383 38,000  Level Washington Center
07:29AM 37.6042 -79.5186 227° Southwest 333 383 38,000  Level Washington Center
07:30AM 37.5431 -79.6019 227° Southwest 333 383 38,000  Level Washington Center
07:33AM 37.4069 -79.7911 228° Southwest 326 375 38,000  Level Atlanta Center
07:34AM 37.3389 -79.8808 226° Southwest 326 375 38,000  Level Atlanta Center
07:35AM 37.2792 -79.9622 227° Southwest 326 375 38,000  Level Atlanta Center
07:36AM 37.2192 -80.0408 226° Southwest 326 375 38,000  Level Atlanta Center
07:37AM 37.1594 -80.1247 228° Southwest 326 375 38,000  Level Atlanta Center
07:38AM 37.1053 -80.1950 226° Southwest 326 375 38,000  Level Atlanta Center
07:39AM 37.0414 -80.2814 227° Southwest 326 375 38,000  Level Atlanta Center
07:40AM 36.9811 -80.3594 226° Southwest 326 375 38,000  Level Atlanta Center
07:41AM 36.9211 -80.4456 229° Southwest 326 375 38,000  Level Atlanta Center
07:42AM 36.8528 -80.5342 226° Southwest 326 375 38,000  Level Atlanta Center
07:43AM 36.7906 -80.6147 226° Southwest 326 375 38,000  Level Atlanta Center
07:44AM 36.7322 -80.6950 228° Southwest 326 375 38,000  Level Atlanta Center
07:45AM 36.6719 -80.7778 228° Southwest 321 369 38,000  Level Atlanta Center
07:46AM 36.6114 -80.8578 227° Southwest 326 375 38,000  Level Atlanta Center
07:47AM 36.5508 -80.9375 227° Southwest 326 375 38,000  Level Atlanta Center
07:48AM 36.4903 -81.0200 228° Southwest 326 375 38,000  Level Atlanta Center
07:49AM 36.4297 -81.0972 226° Southwest 326 375 38,000  Level Atlanta Center
07:50AM 36.3692 -81.1767 227° Southwest 326 375 38,000  Level Atlanta Center
07:51AM 36.3083 -81.2589 227° Southwest 326 375 38,000  Level Atlanta Center
07:52AM 36.2433 -81.3408 225° Southwest 326 375 38,000  Level Atlanta Center
07:53AM 36.1828 -81.4225 227° Southwest 326 375 38,000  Level Atlanta Center
07:54AM 36.1217 -81.5017 226° Southwest 326 375 38,000  Level Atlanta Center
07:55AM 36.0586 -81.5833 226° Southwest 326 375 38,000  Level Atlanta Center
07:56AM 36.0017 -81.6569 226° Southwest 326 375 38,000  Level Atlanta Center
07:57AM 35.9408 -81.7356 226° Southwest 331 381 38,000  Level Atlanta Center
07:58AM 35.8797 -81.8194 228° Southwest 331 381 38,000  Level Atlanta Center
07:59AM 35.8144 -81.9006 225° Southwest 331 381 38,000  Level Atlanta Center
08:00AM 35.7511 -81.9789 225° Southwest 326 375 38,000  Level Atlanta Center
08:01AM 35.6919 -82.0572 227° Southwest 326 375 38,000  Level Atlanta Center
08:02AM 35.6283 -82.1378 226° Southwest 326 375 38,000  Level Atlanta Center
08:03AM 35.5669 -82.2158 226° Southwest 326 375 38,000  Level Atlanta Center
08:04AM 35.5036 -82.2989 227° Southwest 326 375 38,000  Level Atlanta Center
08:05AM 35.4400 -82.3742 224° Southwest 326 375 38,000  Level Atlanta Center
08:06AM 35.3783 -82.4519 226° Southwest 326 375 38,000  Level Atlanta Center
08:07AM 35.3167 -82.5319 227° Southwest 326 375 38,000  Level Atlanta Center
08:08AM 35.2489 -82.6119 224° Southwest 320 368 38,000  Level Atlanta Center
08:09AM 35.1850 -82.6919 226° Southwest 320 368 38,000  Level Atlanta Center
08:10AM 35.1253 -82.7664 226° Southwest 320 368 38,000  Level Atlanta Center
08:11AM 35.0614 -82.8461 226° Southwest 320 368 38,000  Level Atlanta Center
08:12AM 34.9956 -82.9283 226° Southwest 329 379 38,000  Level Atlanta Center
08:13AM 34.9336 -83.0075 226° Southwest 329 379 38,000  Level Atlanta Center
08:14AM 34.8736 -83.0742 222° Southwest 335 386 38,000  Level Atlanta Center
08:15AM 34.8075 -83.1508 224° Southwest 335 386 38,000  Level Atlanta Center
08:16AM 34.7414 -83.2450 230° Southwest 328 377 38,000  Level Atlanta Center
08:17AM 34.6811 -83.3164 224° Southwest 334 384 38,000  Level Atlanta Center
08:18AM 34.6086 -83.3978 223° Southwest 329 379 38,000  Level Atlanta Center
08:19AM 34.5464 -83.4764 226° Southwest 329 379 38,000  Level Atlanta Center
08:20AM 34.4861 -83.5550 227° Southwest 334 384 38,000  Level Atlanta Center
08:21AM 34.4197 -83.6358 225° Southwest 334 384 38,000  Level Atlanta Center
08:22AM 34.3594 -83.7167 228° Southwest 326 375 38,000  Level Atlanta Center
08:23AM 34.2992 -83.7950 227° Southwest 326 375 38,000  Level Atlanta Center
08:24AM 34.2344 -83.8731 225° Southwest 326 375 38,000  Level Atlanta Center
08:25AM 34.1742 -83.9508 227° Southwest 331 381 38,000  Level Atlanta Center
08:26AM 34.1178 -84.0211 226° Southwest 331 381 38,000  Level Atlanta Center
08:27AM 34.0508 -84.1039 226° Southwest 326 375 38,000  Level Atlanta Center
08:28AM 33.9903 -84.1817 227° Southwest 326 375 38,000  Level Atlanta Center
08:29AM 33.9233 -84.2642 226° Southwest 334 384 38,000  Level Atlanta Center
08:30AM 33.8586 -84.3439 226° Southwest 334 384 38,000  Level Atlanta Center
08:31AM 33.7978 -84.4211 227° Southwest 334 384 38,000  Level Atlanta Center
08:32AM 33.7328 -84.5033 226° Southwest 334 384 38,000  Level Atlanta Center
08:33AM 33.6636 -84.5928 227° Southwest 334 384 38,000  Level Atlanta Center
08:34AM 33.6047 -84.6622 224° Southwest 328 377 38,000  Level Atlanta Center
08:35AM 33.5333 -84.7517 226° Southwest 328 377 38,000  Level Atlanta Center
08:36AM 33.4744 -84.8258 226° Southwest 333 383 38,000  Level Atlanta Center
08:37AM 33.4092 -84.9022 224° Southwest 333 383 38,000  Level Atlanta Center
08:38AM 33.3439 -84.9836 226° Southwest 333 383 38,000  Level Atlanta Center
08:39AM 33.2808 -85.0625 226° Southwest 333 383 38,000  Level Atlanta Center
08:40AM 33.2153 -85.1414 225° Southwest 338 389 38,000  Level Atlanta Center
08:41AM 33.1539 -85.2272 230° Southwest 338 389 38,000  Level Atlanta Center
08:42AM 33.0864 -85.3181 228° Southwest 333 383 38,000  Level Atlanta Center
08:43AM 33.0228 -85.3917 224° Southwest 327 376 38,000  Level Atlanta Center
08:44AM 32.9614 -85.4747 229° Southwest 327 376 38,000  Level Atlanta Center
08:45AM 32.9019 -85.5628 231° Southwest 333 383 38,000  Level Atlanta Center
08:46AM 32.8361 -85.6433 226° Southwest 338 389 38,000  Level Atlanta Center
08:47AM 32.7767 -85.7261 230° Southwest 338 389 38,000  Level Atlanta Center
08:48AM 32.7108 -85.8089 227° Southwest 338 389 38,000  Level Atlanta Center
08:49AM 32.6469 -85.8964 229° Southwest 333 383 38,000  Level Atlanta Center
08:50AM 32.5872 -85.9789 229° Southwest 333 383 38,000  Level Atlanta Center
08:51AM 32.5253 -86.0614 228° Southwest 333 383 38,000  Level Atlanta Center
08:52AM 32.4592 -86.1461 227° Southwest 341 392 38,000  Level Atlanta Center
08:53AM 32.3972 -86.2306 229° Southwest 341 392 38,000  Level Atlanta Center
08:54AM 32.3331 -86.3128 227° Southwest 341 392 38,000  Level Atlanta Center
08:55AM 32.2711 -86.3944 228° Southwest 336 387 38,000  Level Atlanta Center
08:56AM 32.2108 -86.4764 229° Southwest 336 387 38,000  Level Atlanta Center
08:57AM 32.1486 -86.5631 230° Southwest 336 387 38,000  Level Atlanta Center
08:58AM 32.0844 -86.6447 227° Southwest 336 387 38,000  Level Atlanta Center
08:59AM 32.0203 -86.7211 225° Southwest 341 392 38,000  Level Atlanta Center
09:00AM 31.9556 -86.8050 228° Southwest 353 406 38,000  Level Atlanta Center
09:02AM 31.8344 -86.9578 227° Southwest 343 395 38,000  Level Houston Center
09:03AM 31.7678 -87.0400 226° Southwest 347 399 38,000  Level Houston Center
09:04AM 31.6917 -87.1397 228° Southwest 343 395 38,000  Level Houston Center
09:05AM 31.6275 -87.2211 227° Southwest 340 391 38,000  Level Houston Center
09:06AM 31.5631 -87.3044 228° Southwest 344 396 38,000  Level Houston Center
09:07AM 31.4978 -87.3858 227° Southwest 342 394 38,000  Level Houston Center
09:08AM 31.4328 -87.4692 228° Southwest 346 398 38,000  Level Houston Center
09:09AM 31.3692 -87.5511 228° Southwest 341 392 38,000  Level Houston Center
09:10AM 31.3028 -87.6344 227° Southwest 349 402 38,000  Level Houston Center
09:11AM 31.2381 -87.7178 228° Southwest 347 399 38,000  Level Houston Center
09:12AM 31.1642 -87.8106 227° Southwest 347 399 38,000  Level Houston Center
09:13AM 31.0994 -87.8922 227° Southwest 346 398 38,000  Level Houston Center
09:14AM 31.0450 -87.9828 235° Southwest 343 395 38,000  Level Houston Center
09:15AM 31.0069 -88.0819 246° West 337 388 38,000  Level Houston Center
09:16AM 30.9672 -88.1817 245° Southwest 340 391 38,000  Level Houston Center
09:17AM 30.9217 -88.3033 246° West 344 396 38,000  Level Houston Center
09:18AM 30.8847 -88.4028 247° West 337 388 38,000  Level Houston Center
09:19AM 30.8464 -88.5017 246° West 337 388 38,000  Level Houston Center
09:20AM 30.8081 -88.6019 246° West 339 390 38,000  Level Houston Center
09:21AM 30.7708 -88.6983 246° West 336 387 38,000  Level Houston Center
09:22AM 30.7317 -88.7981 245° Southwest 338 389 38,000  Level Houston Center
09:23AM 30.6933 -88.8969 246° West 335 386 38,000  Level Houston Center
09:24AM 30.6544 -88.9986 246° West 337 388 38,000  Level Houston Center
09:25AM 30.6072 -89.1189 246° West 341 392 38,000  Level Houston Center
09:26AM 30.5697 -89.2167 246° West 336 387 38,000  Level Houston Center
09:27AM 30.5319 -89.3178 247° West 342 394 38,000  Level Houston Center
09:28AM 30.4936 -89.4153 245° Southwest 334 384 38,000  Level Houston Center
09:29AM 30.4544 -89.5136 245° Southwest 336 387 38,000  Level Houston Center
09:30AM 30.4167 -89.6100 246° West 332 382 38,000  Level Houston Center
09:31AM 30.3778 -89.7069 245° Southwest 332 382 38,000  Level Houston Center
09:32AM 30.3319 -89.8219 245° Southwest 333 383 38,000  Level Houston Center
09:33AM 30.2950 -89.9131 245° Southwest 336 387 38,000  Level Houston Center
09:34AM 30.2567 -90.0100 245° Southwest 335 386 38,000  Level Houston Center
09:36AM 30.2189 -90.1064 246° West 331 381 38,000  Level Houston Center
09:37AM 30.1800 -90.2028 245° Southwest 332 382 38,000  Level Houston Center
09:38AM 30.1331 -90.3194 245° Southwest 335 386 38,000  Level Houston Center
09:39AM 30.0944 -90.4161 245° Southwest 332 382 38,000  Level Houston Center
09:40AM 30.0558 -90.5117 245° Southwest 331 381 38,000  Level Houston Center
09:41AM 30.0172 -90.6078 245° Southwest 329 379 38,000  Level Houston Center
09:42AM 29.9783 -90.7028 245° Southwest 330 380 38,000  Level Houston Center
09:43AM 29.9636 -90.8067 261° West 327 376 38,000  Level Houston Center
09:44AM 29.9450 -90.9089 258° West 326 375 38,000  Level Houston Center
09:45AM 29.9264 -91.0089 258° West 321 369 38,000  Level Houston Center
09:46AM 29.9094 -91.1086 259° West 320 368 38,000  Level Houston Center
09:47AM 29.8889 -91.2294 259° West 319 367 38,000  Level Houston Center
09:48AM 29.8700 -91.3289 258° West 319 367 38,000  Level Houston Center
09:49AM 29.8533 -91.4289 259° West 319 367 38,000  Level Houston Center
09:50AM 29.8344 -91.5306 258° West 323 372 38,000  Level Houston Center
09:51AM 29.8172 -91.6322 259° West 325 374 38,000  Level Houston Center
09:52AM 29.7964 -91.7478 258° West 323 372 38,000  Level Houston Center
09:53AM 29.7772 -91.8494 258° West 325 374 38,000  Level Houston Center
09:54AM 29.7597 -91.9483 259° West 318 366 38,000  Level Houston Center
09:55AM 29.7403 -92.0489 257° West 320 368 38,000  Level Houston Center
09:56AM 29.7217 -92.1481 258° West 319 367 38,000  Level Houston Center
09:57AM 29.7039 -92.2475 258° West 318 366 38,000  Level Houston Center
09:58AM 29.6861 -92.3464 258° West 317 365 38,000  Level Houston Center
09:59AM 29.6672 -92.4450 258° West 317 365 38,000  Level Houston Center
10:00AM 29.6494 -92.5439 258° West 317 365 38,000  Level Houston Center
10:01AM 29.6261 -92.6628 257° West 317 365 38,000  Level Houston Center
10:02AM 29.6072 -92.7631 258° West 320 368 38,000  Level Houston Center
10:03AM 29.5881 -92.8625 258° West 320 368 38,000  Level Houston Center
10:04AM 29.5700 -92.9619 258° West 318 366 38,000  Level Houston Center
10:05AM 29.5508 -93.0625 258° West 322 371 38,000 -60 Level Houston Center
10:06AM 29.5314 -93.1619 257° West 320 368 37,900 -1,080 Descending Houston Center
10:07AM 29.5125 -93.2614 258° West 319 367 35,800 -2,040 Descending Houston Center
10:08AM 29.4933 -93.3583 257° West 313 360 33,800 -2,160 Descending Houston Center
10:09AM 29.4708 -93.4756 258° West 313 360 31,400 -2,160 Descending Houston Center
10:10AM 29.4511 -93.5731 257° West 314 361 29,400 -1,920 Descending Houston Center
10:11AM 29.4331 -93.6669 258° West 304 350 27,500 -1,860 Descending Houston Center
10:12AM 29.4142 -93.7617 257° West 304 350 25,600 -1,860 Descending Houston Center
10:13AM 29.3964 -93.8547 258° West 301 346 23,800 -1,740 Descending Houston Center
10:14AM 29.3772 -93.9467 257° West 297 342 22,100 -1,860 Descending Houston Center
10:15AM 29.3619 -94.0122 255° West 295 339 20,800 -1,800 Descending Houston Center
10:16AM 29.3589 -94.0400 263° West 300 345 20,300 -1,740 Descending Houston Center
10:16AM 29.3486 -94.0886 256° West 297 342 19,400 -1,800 Descending Houston Center
10:17AM 29.3397 -94.1322 257° West 299 344 18,500 -1,680 Descending Houston Center
10:17AM 29.3303 -94.1772 256° West 298 343 17,700 -1,860 Descending Houston Center
10:18AM 29.3183 -94.2417 258° West 295 339 16,600 -1,740 Descending Houston Center
10:18AM 29.3103 -94.2711 253° West 290 334 16,000 -1,800 Descending Houston Center
10:19AM 29.3000 -94.3294 259° West 287 330 14,800 -1,860 Descending Houston Center
10:19AM 29.2919 -94.3597 253° West 281 323 14,100 -1,800 Descending Houston Center
10:20AM 29.2831 -94.4161 260° West 281 323 13,000 -1,680 Descending Houston Center
10:20AM 29.2753 -94.4458 253° West 278 320 12,400 -1,080 Descending Houston Center
10:21AM 29.2750 -94.5019 270° West 281 323 11,900 -900 Descending Houston Center
10:21AM 29.2906 -94.5375 297° West 271 312 11,400 -1,020 Descending Houston Center
10:22AM 29.3106 -94.5728 303° West 259 298 10,900 -1,140 Descending Houston Center
10:22AM 29.3294 -94.6117 299° West 260 299 10,300 -1,020 Descending Houston Center
10:23AM 29.3458 -94.6456 299° West 259 298 9,900 -900 Descending Houston Center
10:23AM 29.3642 -94.6864 297° West 265 305 9,400 -1,020 Descending Houston Center
10:24AM 29.3831 -94.7203 303° West 266 306 8,900 -1,140 Descending Houston Center
10:24AM 29.4031 -94.7631 298° West 270 311 8,300 -900 Descending Houston Center
10:25AM 29.4206 -94.7953 302° West 270 311 8,000 -300 Descending Houston Center
10:25AM 29.4394 -94.8375 297° West 268 308 8,000 -300 Level Houston Center
10:26AM 29.4639 -94.8842 301° West 268 308 7,700 -720 Descending Houston Center
10:26AM 29.4761 -94.9122 297° West 268 308 7,300 -1,020 Descending Houston Center
10:27AM 29.4997 -94.9578 301° West 266 306 6,700 -1,020 Descending Houston Center
10:27AM 29.5150 -94.9892 299° West 265 305 6,300 -720 Descending Houston Center
10:28AM 29.5356 -95.0308 300° West 263 303 6,000 -360 Descending Houston Center
10:28AM 29.5467 -95.0572 296° West 260 299 6,000  Level Houston Center
10:29AM 29.5706 -95.1025 301° West 260 299 6,000  Level Houston Center
10:29AM 29.5853 -95.1342 298° West 256 295 6,000  Level Houston Center
10:30AM 29.5950 -95.1733 286° West 248 285 6,000  Level Houston Center
10:30AM 29.5828 -95.1969 239° Southwest 208 239 6,000 -420 Level Houston Center
10:31AM 29.5633 -95.2333 238° Southwest 219 252 5,600 -900 Descending Houston Center
10:31AM 29.5464 -95.2567 230° Southwest 213 245 5,100 -1,200 Descending Houston Center
10:32AM 29.5219 -95.2819 222° Southwest 214 246 4,400 -1,140 Descending Houston Center
10:32AM 29.5025 -95.3053 226° Southwest 217 250 4,000 -1,020 Descending Houston Center
10:33AM 29.4794 -95.3303 223° Southwest 215 247 3,400 -900 Descending Houston Center
10:33AM 29.4844 -95.3603 281° West 208 239 3,100 -720 Descending Houston Center
10:34AM 29.5078 -95.3822 321° Northwest 213 245 2,700 -840 Descending Houston Center
10:34AM 29.5342 -95.3758 12° North 198 228 2,300 -1,020 Descending Houston Center
10:35AM 29.5692 -95.3631 18° North 202 232 1,700 -780 Descending Houston Center
10:35AM 29.5781 -95.3514 49° Northeast 176 203 1,500 -600 Descending Houston Center
10:36AM 29.6017 -95.3261 43° Northeast 176 203 1,100 -600 Descending Houston Center
10:36AM 29.6086 -95.3189 42° Northeast 134 154 900 -720 Descending Houston Center
10:37AM 29.6269 -95.2978 45° Northeast 147 169 400 -720 Descending Houston Center
10:37AM 29.6336 -95.2917 39° Northeast 124 143 200 -300 Descending Houston Center
10:38AM 29.6506 -95.2708 47° Northeast 140 161 100 -180 Descending Houston Center